createdAt,value
2022-09-15T00:01:43.855Z,13.7
2022-09-15T00:03:47.345Z,13.7
2022-09-15T00:05:53.997Z,13.8
2022-09-15T00:07:57.505Z,13.9
2022-09-15T00:10:01.051Z,13.9
2022-09-15T00:11:04.366Z,13.9
2022-09-15T00:13:07.873Z,13.9
2022-09-15T00:17:14.953Z,13.9
2022-09-15T00:19:21.557Z,14
2022-09-15T00:21:25.045Z,14.2
2022-09-15T00:23:28.633Z,14.1
2022-09-15T00:25:32.094Z,14.2
2022-09-15T00:27:35.584Z,14.2
2022-09-15T00:29:39.130Z,14.2
2022-09-15T00:31:42.658Z,14.1
2022-09-15T00:33:49.269Z,14.3
2022-09-15T00:35:52.766Z,14.2
2022-09-15T00:37:57.312Z,14.3
2022-09-15T00:40:00.827Z,14.3
2022-09-15T00:42:04.328Z,14.3
2022-09-15T00:44:07.795Z,14.2
2022-09-15T00:50:21.489Z,14.1
2022-09-15T01:02:45.664Z,14.2
2022-09-15T01:04:49.106Z,14
2022-09-15T01:06:52.614Z,14.2
2022-09-15T01:07:55.881Z,14.2
2022-09-15T01:09:59.441Z,14
2022-09-15T01:12:02.937Z,14.1
2022-09-15T01:14:06.411Z,14
2022-09-15T01:24:26.987Z,13.9
2022-09-15T01:26:30.487Z,13.9
2022-09-15T01:28:33.978Z,14
2022-09-15T01:32:44.080Z,13.6
2022-09-15T01:34:47.588Z,13.7
2022-09-15T01:36:51.066Z,13.6
2022-09-15T01:38:54.600Z,13.7
2022-09-15T01:40:58.108Z,13.5
2022-09-15T01:43:01.699Z,13.7
2022-09-15T01:47:11.746Z,13.4
2022-09-15T01:49:15.244Z,13.4
2022-09-15T01:51:18.784Z,13.4
2022-09-15T01:53:22.285Z,13.4
2022-09-15T01:55:25.824Z,13.3
2022-09-15T01:57:29.305Z,13.4
2022-09-15T02:01:39.489Z,13.4
2022-09-15T02:03:42.934Z,13.7
2022-09-15T02:06:00.933Z,13.8
2022-09-15T02:08:04.457Z,13.7
2022-09-15T02:10:07.987Z,13.5
2022-09-15T02:12:14.609Z,13.6
2022-09-15T02:14:18.126Z,13.6
2022-09-15T02:16:21.721Z,13.5
2022-09-15T02:20:28.668Z,13.5
2022-09-15T02:22:32.227Z,13.6
2022-09-15T02:24:35.740Z,13.6
2022-09-15T02:26:42.321Z,13.8
2022-09-15T02:28:45.834Z,13.6
2022-09-15T02:30:49.369Z,14
2022-09-15T02:32:52.889Z,13.9
2022-09-15T02:34:56.367Z,13.9
2022-09-15T02:36:59.887Z,13.9
2022-09-15T02:39:03.420Z,13.7
2022-09-15T02:41:10.061Z,13.9
2022-09-15T02:43:13.575Z,13.9
2022-09-15T02:45:17.100Z,13.8
2022-09-15T02:47:20.605Z,13.9
2022-09-15T02:49:24.161Z,13.6
2022-09-15T02:51:27.633Z,13.7
2022-09-15T02:53:32.787Z,13.5
2022-09-15T02:55:39.285Z,13.5
2022-09-15T02:59:46.297Z,13.7
2022-09-15T03:00:49.691Z,13.4
2022-09-15T03:02:53.122Z,13.6
2022-09-15T03:04:56.664Z,13.4
2022-09-15T03:07:00.204Z,13.5
2022-09-15T03:11:10.325Z,13.3
2022-09-15T03:13:13.856Z,13.4
2022-09-15T03:17:20.903Z,13.2
2022-09-15T03:19:24.401Z,13.6
2022-09-15T03:21:27.928Z,13.4
2022-09-15T03:23:37.673Z,13.3
2022-09-15T03:25:38.063Z,13.3
2022-09-15T03:27:41.547Z,13.4
2022-09-15T03:29:45.095Z,13.5
2022-09-15T03:38:02.252Z,13.5
2022-09-15T03:42:09.289Z,13.6
2022-09-15T03:44:12.788Z,13.4
2022-09-15T03:46:16.374Z,13.6
2022-09-15T03:48:19.853Z,13.6
2022-09-15T03:50:23.379Z,13.6
2022-09-15T03:52:29.981Z,13.5
2022-09-15T03:54:33.494Z,13.5
2022-09-15T04:03:51.465Z,13.7
2022-09-15T04:08:00.962Z,13.7
2022-09-15T04:10:04.442Z,13.6
2022-09-15T04:14:11.455Z,13.9
2022-09-15T04:16:14.981Z,13.7
2022-09-15T04:20:25.042Z,13.7
2022-09-15T04:22:28.556Z,13.6
2022-09-15T04:24:32.043Z,13.9
2022-09-15T04:26:35.537Z,13.8
2022-09-15T04:28:39.020Z,13.9
2022-09-15T04:30:42.520Z,13.9
2022-09-15T04:32:46.050Z,13.8
2022-09-15T04:34:52.644Z,13.9
2022-09-15T04:36:56.141Z,13.8
2022-09-15T04:38:59.647Z,13.7
2022-09-15T04:41:03.187Z,13.8
2022-09-15T04:43:06.665Z,13.7
2022-09-15T04:45:10.190Z,13.8
2022-09-15T04:47:13.684Z,13.9
2022-09-15T04:49:20.266Z,13.7
2022-09-15T04:51:23.777Z,13.7
2022-09-15T04:54:30.581Z,13.6
2022-09-15T04:56:34.066Z,13.5
2022-09-15T05:04:51.164Z,13.8
2022-09-15T05:11:01.688Z,13.8
2022-09-15T05:13:05.175Z,13.6
2022-09-15T05:25:29.497Z,13.6
2022-09-15T05:27:36.936Z,13.6
2022-09-15T05:33:46.449Z,13.7
2022-09-15T05:35:49.963Z,13.8
2022-09-15T05:37:54.652Z,13.9
2022-09-15T05:39:57.024Z,13.9
2022-09-15T05:42:00.471Z,14
2022-09-15T05:44:03.978Z,14
2022-09-15T05:46:10.626Z,13.9
2022-09-15T05:48:14.105Z,13.9
2022-09-15T05:50:17.588Z,13.9
2022-09-15T05:52:35.954Z,13.9
2022-09-15T05:54:39.452Z,13.9
2022-09-15T05:56:42.996Z,13.9
2022-09-15T05:58:49.551Z,13.9
2022-09-15T06:00:53.039Z,14
2022-09-15T06:02:56.614Z,14
2022-09-15T06:05:00.068Z,14.1
2022-09-15T06:07:03.556Z,14.1
2022-09-15T06:09:07.042Z,14.1
2022-09-15T06:11:10.556Z,14.1
2022-09-15T06:13:17.170Z,14.2
2022-09-15T06:15:20.807Z,14.2
2022-09-15T06:17:24.156Z,14.2
2022-09-15T06:19:27.662Z,14.3
2022-09-15T06:21:31.147Z,14.3
2022-09-15T06:23:34.671Z,14.3
2022-09-15T06:25:38.175Z,14.3
2022-09-15T06:27:44.758Z,14.3
2022-09-15T06:29:48.280Z,14.3
2022-09-15T06:31:51.818Z,14.3
2022-09-15T06:33:55.239Z,14.3
2022-09-15T06:35:58.758Z,14.3
2022-09-15T06:38:02.259Z,14.3
2022-09-15T06:40:05.798Z,14.3
2022-09-15T06:42:13.934Z,14.4
2022-09-15T06:44:15.841Z,14.4
2022-09-15T06:46:19.443Z,14.5
2022-09-15T06:47:22.644Z,14.6
2022-09-15T06:49:26.129Z,14.6
2022-09-15T06:51:29.627Z,14.7
2022-09-15T06:53:33.125Z,14.7
2022-09-15T06:55:39.726Z,14.9
2022-09-15T06:59:46.716Z,15.1
2022-09-15T07:01:50.271Z,15.1
2022-09-15T07:03:53.858Z,15.1
2022-09-15T07:05:57.187Z,15.2
2022-09-15T07:10:07.264Z,15.2
2022-09-15T07:14:14.220Z,15.1
2022-09-15T07:16:17.830Z,15
2022-09-15T07:18:21.204Z,14.9
2022-09-15T07:20:24.701Z,14.6
2022-09-15T07:22:28.188Z,14.4
2022-09-15T07:24:34.747Z,14.2
2022-09-15T07:26:38.230Z,14.1
2022-09-15T07:28:41.733Z,14
2022-09-15T07:30:45.213Z,14
2022-09-15T07:32:48.660Z,13.9
2022-09-15T07:34:54.507Z,13.9
2022-09-15T07:36:55.669Z,13.9
2022-09-15T07:39:02.219Z,14
2022-09-15T07:41:05.723Z,14
2022-09-15T07:43:09.182Z,14
2022-09-15T07:46:16.033Z,14.1
2022-09-15T07:48:22.201Z,14.2
2022-09-15T07:50:23.052Z,14.3
2022-09-15T07:52:29.608Z,14.6
2022-09-15T07:54:33.042Z,14.5
2022-09-15T07:56:36.515Z,14.6
2022-09-15T07:58:40.028Z,14.7
2022-09-15T08:00:43.659Z,14.7
2022-09-15T08:02:47.030Z,14.7
2022-09-15T08:04:50.536Z,14.8
2022-09-15T08:06:57.106Z,14.9
2022-09-15T08:11:04.096Z,15
2022-09-15T08:13:07.571Z,15.1
2022-09-15T08:17:14.564Z,15.4
2022-09-15T08:19:18.015Z,15.4
2022-09-15T08:21:24.606Z,15.4
2022-09-15T08:23:28.101Z,15.4
2022-09-15T08:25:31.601Z,15.7
2022-09-15T08:27:35.055Z,15.9
2022-09-15T08:29:38.545Z,16.1
2022-09-15T08:31:42.652Z,16.2
2022-09-15T08:33:45.967Z,16.4
2022-09-15T08:35:52.091Z,16.8
2022-09-15T08:37:55.532Z,17
2022-09-15T08:39:59.103Z,17
2022-09-15T08:43:07.174Z,16.9
2022-09-15T08:47:12.690Z,17.2
2022-09-15T08:49:40.876Z,17
2022-09-15T08:51:24.221Z,17
2022-09-15T08:53:27.649Z,16.7
2022-09-15T08:55:31.112Z,16.5
2022-09-15T08:57:34.599Z,16.6
2022-09-15T08:59:38.006Z,16.7
2022-09-15T09:01:41.509Z,16.7
2022-09-15T09:03:47.981Z,16.7
2022-09-15T09:05:51.420Z,16.7
2022-09-15T09:07:54.844Z,16.7
2022-09-15T09:09:58.272Z,16.7
2022-09-15T09:12:01.723Z,16.8
2022-09-15T09:14:05.118Z,16.9
2022-09-15T09:16:08.640Z,17.1
2022-09-15T09:18:15.454Z,17.1
2022-09-15T09:20:18.790Z,17.2
2022-09-15T09:22:22.233Z,17.4
2022-09-15T09:24:25.661Z,17.5
2022-09-15T09:26:29.098Z,17.5
2022-09-15T09:28:32.525Z,17.5
2022-09-15T09:30:36.020Z,17.7
2022-09-15T09:39:13.277Z,17.5
2022-09-15T09:41:16.611Z,17.5
2022-09-15T09:43:20.006Z,17.5
2022-09-15T09:45:26.564Z,17.7
2022-09-15T09:47:29.912Z,17.9
2022-09-15T09:49:33.316Z,18.1
2022-09-15T09:51:36.741Z,18.1
2022-09-15T09:55:43.529Z,18.4
2022-09-15T09:59:53.433Z,18.7
2022-09-15T10:01:56.829Z,18.8
2022-09-15T10:04:00.181Z,18.6
2022-09-15T10:06:03.583Z,18.5
2022-09-15T10:08:06.969Z,18.7
2022-09-15T10:12:13.711Z,18.5
2022-09-15T10:14:20.100Z,18.5
2022-09-15T10:16:23.503Z,18.5
2022-09-15T10:18:26.856Z,18.6
2022-09-15T10:20:30.215Z,18.5
2022-09-15T10:22:33.572Z,18.5
2022-09-15T10:24:36.937Z,18.3
2022-09-15T10:26:40.286Z,18.4
2022-09-15T10:28:46.802Z,18.1
2022-09-15T10:30:50.178Z,18.1
2022-09-15T10:32:53.525Z,18.2
2022-09-15T10:33:56.778Z,18.3
2022-09-15T10:38:03.399Z,18.5
2022-09-15T10:40:06.799Z,18.5
2022-09-15T10:44:16.501Z,18.5
2022-09-15T10:46:19.930Z,18.2
2022-09-15T10:48:23.110Z,18.1
2022-09-15T10:50:26.486Z,18.2
2022-09-15T10:52:29.832Z,18.4
2022-09-15T10:56:39.603Z,18.7
2022-09-15T11:00:46.374Z,18.7
2022-09-15T11:02:49.605Z,18.7
2022-09-15T11:04:52.941Z,18.7
2022-09-15T11:06:56.212Z,19.2
2022-09-15T11:08:59.479Z,19.7
2022-09-15T11:11:05.747Z,19.4
2022-09-15T11:13:08.964Z,19.1
2022-09-15T11:15:12.228Z,18.9
2022-09-15T11:17:15.480Z,18.9
2022-09-15T11:19:18.734Z,18.9
2022-09-15T11:21:22.075Z,18.7
2022-09-15T11:23:25.256Z,19
2022-09-15T11:25:31.477Z,19.1
2022-09-15T11:29:37.925Z,18.8
2022-09-15T11:30:45.618Z,18.7
2022-09-15T11:32:44.406Z,18.7
2022-09-15T11:34:47.714Z,18.8
2022-09-15T11:36:50.924Z,18.6
2022-09-15T11:38:57.310Z,18.9
2022-09-15T11:41:00.540Z,19.4
2022-09-15T11:43:03.771Z,19.8
2022-09-15T11:45:06.995Z,19.6
2022-09-15T11:47:10.199Z,19.4
2022-09-15T11:49:13.414Z,18.9
2022-09-15T11:51:16.627Z,18.4
2022-09-15T11:53:22.887Z,17.6
2022-09-15T11:55:26.088Z,17.3
2022-09-15T11:57:29.411Z,16.7
2022-09-15T12:01:35.928Z,16.4
2022-09-15T12:03:39.091Z,16.4
2022-09-15T12:05:42.436Z,16.6
2022-09-15T12:07:48.910Z,16.6
2022-09-15T12:11:55.600Z,16.7
2022-09-15T12:13:58.987Z,16.7
2022-09-15T12:16:02.396Z,16.7
2022-09-15T12:18:10.834Z,16.8
2022-09-15T12:20:09.083Z,16.9
2022-09-15T12:22:15.592Z,17
2022-09-15T12:24:18.950Z,17
2022-09-15T12:26:22.356Z,17.1
2022-09-15T12:27:25.618Z,17.3
2022-09-15T12:37:45.671Z,17.9
2022-09-15T12:43:55.852Z,18.4
2022-09-15T12:45:59.300Z,18.4
2022-09-15T12:48:02.608Z,18.7
2022-09-15T12:50:09.088Z,18.6
2022-09-15T12:52:12.403Z,18.5
2022-09-15T12:54:15.776Z,18.4
2022-09-15T12:56:19.175Z,18.5
2022-09-15T13:00:25.904Z,19
2022-09-15T13:02:29.443Z,18.7
2022-09-15T13:04:35.798Z,18.7
2022-09-15T13:06:39.174Z,18.5
2022-09-15T13:08:42.539Z,18.3
2022-09-15T13:10:45.923Z,18.4
2022-09-15T13:19:02.457Z,18.5
2022-09-15T13:21:05.711Z,18.6
2022-09-15T13:23:08.980Z,18.5
2022-09-15T13:25:30.732Z,18.3
2022-09-15T13:27:34.010Z,18.3
2022-09-15T13:31:43.911Z,19
2022-09-15T13:35:50.474Z,19.1
2022-09-15T13:42:00.456Z,18.8
2022-09-15T13:46:10.132Z,18.7
2022-09-15T13:48:13.329Z,19
2022-09-15T13:52:19.824Z,20.6
2022-09-15T14:02:39.212Z,18.5
2022-09-15T14:04:42.300Z,18.8
2022-09-15T14:06:45.542Z,18.5
2022-09-15T14:08:48.836Z,18.4
2022-09-15T14:10:52.145Z,19.7
2022-09-15T14:12:55.373Z,20.8
2022-09-15T14:15:01.656Z,18.9
2022-09-15T14:17:05.049Z,18.5
2022-09-15T14:19:08.194Z,18.6
2022-09-15T14:20:11.348Z,18.9
2022-09-15T14:22:14.566Z,19.7
2022-09-15T14:24:17.704Z,19.3
2022-09-15T14:26:20.955Z,19.2
2022-09-15T14:28:30.872Z,18.6
2022-09-15T14:30:30.447Z,18.3
2022-09-15T14:32:33.732Z,18.4
2022-09-15T14:34:37.090Z,19
2022-09-15T14:36:40.198Z,19.1
2022-09-15T14:38:43.451Z,19
2022-09-15T14:40:46.853Z,18.7
2022-09-15T14:42:54.808Z,18.9
2022-09-15T14:47:01.250Z,18.6
2022-09-15T14:49:04.480Z,18.4
2022-09-15T14:51:07.839Z,18.3
2022-09-15T14:53:11.092Z,18.3
2022-09-15T14:55:14.328Z,18.2
2022-09-15T14:57:20.894Z,18.1
2022-09-15T14:59:24.081Z,18.1
2022-09-15T15:01:27.439Z,18
2022-09-15T15:03:30.596Z,17.9
2022-09-15T15:05:33.869Z,17.9
2022-09-15T15:07:37.218Z,18
2022-09-15T15:09:40.584Z,17.9
2022-09-15T15:11:47.095Z,17.9
2022-09-15T15:13:50.454Z,17.9
2022-09-15T15:15:53.832Z,17.9
2022-09-15T15:16:57.171Z,17.8
2022-09-15T15:19:00.361Z,17.8
2022-09-15T15:21:03.744Z,17.7
2022-09-15T15:25:13.505Z,17.5
2022-09-15T15:27:16.798Z,17.5
2022-09-15T15:29:20.176Z,17.5
2022-09-15T15:31:23.676Z,17.5
2022-09-15T15:33:26.981Z,17.4
2022-09-15T15:35:30.380Z,17.4
2022-09-15T15:37:33.738Z,17.4
2022-09-15T15:39:40.271Z,17.5
2022-09-15T15:41:43.695Z,17.5
2022-09-15T15:43:47.053Z,17.7
2022-09-15T15:45:50.520Z,17.7
2022-09-15T15:47:53.853Z,17.8
2022-09-15T15:50:12.275Z,17.7
2022-09-15T15:52:00.649Z,17.8
2022-09-15T15:54:07.171Z,17.6
2022-09-15T15:56:10.541Z,17.5
2022-09-15T15:58:13.950Z,17.3
2022-09-15T16:00:21.115Z,17.2
2022-09-15T16:02:20.862Z,17.1
2022-09-15T16:04:24.191Z,17.1
2022-09-15T16:10:37.532Z,17.2
2022-09-15T16:12:40.942Z,17.1
2022-09-15T16:13:44.230Z,17.1
2022-09-15T16:17:51.017Z,17.1
2022-09-15T16:19:54.450Z,17
2022-09-15T16:22:00.980Z,16.8
2022-09-15T16:24:04.379Z,16.8
2022-09-15T16:26:07.793Z,16.8
2022-09-15T16:28:11.255Z,16.8
2022-09-15T16:32:18.070Z,16.7
2022-09-15T16:36:28.032Z,16.6
2022-09-15T16:38:31.486Z,16.6
2022-09-15T16:40:34.947Z,16.5
2022-09-15T16:42:38.337Z,16.5
2022-09-15T16:44:41.781Z,16.4
2022-09-15T16:46:45.342Z,16.4
2022-09-15T16:48:48.657Z,16.3
2022-09-15T16:51:19.495Z,16.2
2022-09-15T16:52:58.645Z,16.2
2022-09-15T16:55:02.081Z,16.1
2022-09-15T16:57:05.510Z,15.5
2022-09-15T16:59:08.974Z,15.2
2022-09-15T17:03:15.862Z,15
2022-09-15T17:07:25.935Z,14.7
2022-09-15T17:16:06.358Z,14
2022-09-15T17:22:19.736Z,13.7
2022-09-15T17:24:23.248Z,13.7
2022-09-15T17:26:31.327Z,13.7
2022-09-15T17:28:30.253Z,13.7
2022-09-15T17:30:33.782Z,13.7
2022-09-15T17:32:40.320Z,13.7
2022-09-15T17:34:43.858Z,13.7
2022-09-15T17:36:47.363Z,13.6
2022-09-15T17:38:50.894Z,13.5
2022-09-15T17:40:54.364Z,13.4
2022-09-15T17:42:57.956Z,13.3
2022-09-15T17:45:01.423Z,13.3
2022-09-15T17:51:15.034Z,13.2
2022-09-15T17:53:18.580Z,13.2
2022-09-15T17:57:25.653Z,13.2
2022-09-15T17:59:29.182Z,13.2
2022-09-15T18:01:35.851Z,13.2
2022-09-15T18:06:46.139Z,13.1
2022-09-15T18:08:49.660Z,13.1
2022-09-15T18:10:53.189Z,13.2
2022-09-15T18:12:56.751Z,13
2022-09-15T18:15:03.388Z,13.2
2022-09-15T18:17:06.908Z,13.2
2022-09-15T18:19:10.424Z,13.3
2022-09-15T18:21:13.940Z,12.5
2022-09-15T18:27:24.523Z,12.5
2022-09-15T18:39:48.806Z,12.4
2022-09-15T18:43:58.901Z,12.5
2022-09-15T18:46:02.470Z,12.7
2022-09-15T18:50:09.480Z,12.9
2022-09-15T18:56:20.067Z,12.9
2022-09-15T18:58:26.666Z,12.8
2022-09-15T19:00:30.172Z,12.8
2022-09-15T19:05:40.519Z,12.8
2022-09-15T19:07:44.018Z,12.5
2022-09-15T19:09:47.529Z,12.9
2022-09-15T19:11:54.146Z,12.6
2022-09-15T19:13:57.706Z,12.4
2022-09-15T19:16:01.230Z,12.7
2022-09-15T19:20:08.305Z,12.8
2022-09-15T19:22:12.661Z,12.9
2022-09-15T19:24:15.295Z,13
2022-09-15T19:26:21.893Z,12.4
2022-09-15T19:28:25.396Z,12.7
2022-09-15T19:30:28.926Z,12.8
2022-09-15T19:32:32.459Z,12.6
2022-09-15T19:34:35.958Z,12.3
2022-09-15T19:36:39.502Z,12.8
2022-09-15T19:38:43.045Z,12.4
2022-09-15T19:40:49.626Z,12.6
2022-09-15T19:42:53.158Z,12.3
2022-09-15T19:44:56.712Z,12.4
2022-09-15T19:47:00.216Z,12.2
2022-09-15T19:49:03.740Z,12.6
2022-09-15T19:57:20.987Z,12.2
2022-09-15T19:59:28.756Z,12.5
2022-09-15T20:02:31.433Z,12.4
2022-09-15T20:07:01.861Z,12
2022-09-15T20:08:45.109Z,12.2
2022-09-15T20:10:48.636Z,12.3
2022-09-15T20:12:52.151Z,12.2
2022-09-15T20:14:55.692Z,12.2
2022-09-15T20:17:01.242Z,12
2022-09-15T20:19:02.758Z,11.9
2022-09-15T20:21:06.291Z,12.4
2022-09-15T20:27:19.984Z,11.9
2022-09-15T20:33:30.630Z,12
2022-09-15T20:35:34.195Z,12.3
2022-09-15T20:37:40.815Z,12.2
2022-09-15T20:39:46.027Z,12.2
2022-09-15T20:41:49.377Z,12.1
2022-09-15T20:43:52.973Z,12.1
2022-09-15T20:45:56.521Z,11.9
2022-09-15T20:50:03.620Z,11.8
2022-09-15T20:52:10.241Z,11.9
2022-09-15T20:54:13.778Z,12.1
2022-09-15T20:56:17.343Z,12
2022-09-15T21:02:48.457Z,12.2
2022-09-15T21:04:55.077Z,12.2
2022-09-15T21:06:58.625Z,11.7
2022-09-15T21:09:02.162Z,12.1
2022-09-15T21:19:23.037Z,12
2022-09-15T21:23:30.146Z,11.8
2022-09-15T21:25:33.729Z,11.7
2022-09-15T21:27:37.287Z,12.1
2022-09-15T21:29:40.844Z,11.7
2022-09-15T21:31:44.475Z,12.1
2022-09-15T21:33:51.029Z,12.2
2022-09-15T21:35:54.624Z,11.7
2022-09-15T21:38:00.633Z,12
2022-09-15T21:40:01.790Z,11.8
2022-09-15T21:42:05.301Z,12
2022-09-15T21:44:08.866Z,12.1
2022-09-15T21:46:12.492Z,12.1
2022-09-15T21:48:19.085Z,11.7
2022-09-15T21:50:22.649Z,11.9
2022-09-15T21:52:26.193Z,12.1
2022-09-15T21:53:29.528Z,12
2022-09-15T21:55:33.097Z,12
2022-09-15T21:57:36.648Z,11.9
2022-09-15T21:59:40.198Z,12
2022-09-15T22:01:46.965Z,12.1
2022-09-15T22:03:50.430Z,11.7
2022-09-15T22:05:53.970Z,11.9
2022-09-15T22:08:01.548Z,12
2022-09-15T22:10:01.089Z,12.2
2022-09-15T22:12:04.661Z,12.1
2022-09-15T22:14:08.353Z,11.9
2022-09-15T22:16:14.877Z,12
2022-09-15T22:18:18.397Z,12.3
2022-09-15T22:20:21.970Z,11.9
2022-09-15T22:22:25.552Z,12.3
2022-09-15T22:24:29.067Z,12.2
2022-09-15T22:26:32.628Z,12.1
2022-09-15T22:28:36.198Z,12.1
2022-09-15T22:30:42.832Z,12
2022-09-15T22:32:46.380Z,11.9
2022-09-15T22:34:49.937Z,12
2022-09-15T22:36:53.509Z,12
2022-09-15T22:45:10.805Z,12.1
2022-09-15T22:49:17.888Z,12
2022-09-15T22:50:21.185Z,12.1
2022-09-15T22:52:24.754Z,11.8
2022-09-15T22:54:28.286Z,11.7
2022-09-15T22:56:32.704Z,11.8
2022-09-15T22:58:39.522Z,11.7
2022-09-15T23:00:48.939Z,12.1
2022-09-15T23:04:49.162Z,12.1
2022-09-15T23:06:52.714Z,11.8
2022-09-15T23:08:56.275Z,11.8
2022-09-15T23:10:59.840Z,11.9
2022-09-15T23:15:10.041Z,11.6
2022-09-15T23:17:13.595Z,11.5
2022-09-15T23:19:17.183Z,11.5
2022-09-15T23:21:20.729Z,11.9
2022-09-15T23:23:24.295Z,11.9
2022-09-15T23:25:27.865Z,11.7
2022-09-15T23:27:34.522Z,11.9
2022-09-15T23:29:38.050Z,11.7
2022-09-15T23:31:41.761Z,11.9
2022-09-15T23:33:45.181Z,11.6
2022-09-15T23:35:48.745Z,11.6
2022-09-15T23:37:52.301Z,11.6
2022-09-15T23:39:55.865Z,11.8
2022-09-15T23:42:02.507Z,11.6
2022-09-15T23:44:06.055Z,11.8
2022-09-15T23:46:09.756Z,12
2022-09-15T23:47:12.960Z,11.8
2022-09-15T23:49:18.672Z,11.8
2022-09-15T23:51:20.099Z,11.9
2022-09-15T23:53:23.675Z,11.7
2022-09-15T23:57:33.859Z,11.9
2022-09-15T23:59:37.404Z,11.4
